Time;durP1;ratioP1;P1;durP2;ratioP2;P2;SDS_P1;SDS_P2;PMS_P1;PMS_P2;Temp;Humidity;BMP_temperature;BMP_pressure;BME280_temperature;BME280_humidity;BME280_pressure;Samples;Min_cycle;Max_cycle;Signal;HPM_P1;HPM_P2
2021/09/15 00:00:02;;;;;;;7.82;2.78;;;26.80;49.40;;;;;;6246869;28;20044;-79
2021/09/15 00:03:12;;;;;;;7.47;2.40;;;26.70;49.50;;;;;;6260384;28;20018;-79
2021/09/15 00:06:13;;;;;;;12.20;3.30;;;26.70;49.60;;;;;;6262612;28;20025;-78
2021/09/15 00:09:14;;;;;;;3.75;2.03;;;26.70;49.80;;;;;;6270275;28;20048;-79
2021/09/15 00:12:16;;;;;;;7.65;3.20;;;26.60;50.10;;;;;;6266614;28;20117;-78
2021/09/15 00:15:17;;;;;;;15.20;3.05;;;26.60;50.30;;;;;;6269815;28;20033;-79
2021/09/15 00:18:18;;;;;;;7.43;2.90;;;26.50;50.30;;;;;;6251503;28;20036;-79
2021/09/15 00:21:19;;;;;;;3.88;2.72;;;26.50;50.50;;;;;;6268655;28;20033;-78
2021/09/15 00:24:19;;;;;;;6.85;3.13;;;26.40;50.60;;;;;;6268626;28;20079;-78
2021/09/15 00:27:21;;;;;;;7.57;2.83;;;26.30;50.80;;;;;;6251332;28;20147;-79
2021/09/15 00:30:22;;;;;;;6.18;3.08;;;26.30;51.10;;;;;;6268570;28;20036;-79
2021/09/15 00:33:23;;;;;;;10.73;2.70;;;26.30;51.40;;;;;;6265700;28;20414;-79
2021/09/15 00:36:23;;;;;;;5.03;3.13;;;26.30;51.50;;;;;;6267814;28;20468;-79
2021/09/15 00:39:24;;;;;;;5.78;2.83;;;26.30;51.70;;;;;;6267013;28;20063;-78
2021/09/15 00:42:25;;;;;;;10.02;2.67;;;26.30;51.80;;;;;;6249811;28;20033;-80
2021/09/15 00:45:26;;;;;;;7.82;2.78;;;26.30;51.70;;;;;;6267204;28;20106;-79
2021/09/15 00:48:27;;;;;;;6.93;2.50;;;26.30;51.90;;;;;;6268101;28;20371;-77
2021/09/15 00:51:33;;;;;;;8.25;2.80;;;26.30;52.10;;;;;;6268581;28;20044;-79
2021/09/15 00:54:34;;;;;;;4.22;3.20;;;26.30;52.20;;;;;;6228499;28;20478;-79
2021/09/15 00:57:35;;;;;;;7.15;2.92;;;26.20;52.50;;;;;;6245696;28;20033;-79
2021/09/15 01:00:40;;;;;;;8.18;3.08;;;26.20;52.70;;;;;;6227723;28;20236;-78
2021/09/15 01:03:42;;;;;;;4.43;3.30;;;26.20;52.80;;;;;;6241355;28;20473;-78
2021/09/15 01:06:45;;;;;;;6.25;3.17;;;26.10;52.90;;;;;;6205710;28;20029;-77
2021/09/15 01:09:49;;;;;;;6.03;2.50;;;26.00;53.10;;;;;;6263891;28;20450;-78
2021/09/15 01:12:55;;;;;;;9.38;2.90;;;26.00;53.20;;;;;;6247597;28;20096;-78
2021/09/15 01:16:22;;;;;;;4.97;3.05;;;25.90;53.40;;;;;;6243717;28;20108;-78
2021/09/15 01:19:43;;;;;;;5.43;3.20;;;25.90;53.40;;;;;;6229218;28;20544;-78
2021/09/15 01:23:03;;;;;;;6.80;3.45;;;25.90;53.70;;;;;;6240326;28;20041;-78
2021/09/15 01:26:23;;;;;;;6.13;2.83;;;25.80;53.80;;;;;;6204367;28;20132;-78
2021/09/15 01:29:50;;;;;;;8.00;3.38;;;25.80;54.10;;;;;;6225169;28;20071;-79
2021/09/15 01:33:01;;;;;;;5.95;2.83;;;25.80;54.30;;;;;;6185785;28;20033;-79
2021/09/15 01:36:03;;;;;;;9.15;3.22;;;25.70;54.60;;;;;;6207060;28;20045;-79
2021/09/15 01:39:07;;;;;;;4.88;2.97;;;25.70;55.00;;;;;;6224434;28;20030;-78
2021/09/15 01:42:09;;;;;;;5.32;3.05;;;25.70;55.20;;;;;;6242149;28;20029;-77
2021/09/15 01:45:12;;;;;;;13.85;3.17;;;25.60;55.40;;;;;;6197259;28;20113;-77
2021/09/15 01:48:13;;;;;;;12.23;3.22;;;25.60;55.70;;;;;;6201543;28;20105;-78
2021/09/15 01:51:14;;;;;;;5.40;2.35;;;25.50;56.00;;;;;;6191809;28;20045;-78
2021/09/15 01:54:15;;;;;;;5.65;2.72;;;25.50;56.00;;;;;;6204939;28;20041;-79
2021/09/15 01:57:17;;;;;;;10.88;2.90;;;25.50;56.10;;;;;;6231824;28;20022;-78
2021/09/15 02:00:40;;;;;;;8.40;3.03;;;25.40;56.00;;;;;;6247182;28;20033;-78
2021/09/15 02:04:01;;;;;;;4.90;2.60;;;25.40;56.10;;;;;;6255152;28;20450;-78
2021/09/15 02:07:37;;;;;;;5.88;2.47;;;25.40;56.20;;;;;;6214070;28;20021;-78
2021/09/15 02:11:09;;;;;;;7.97;3.08;;;25.30;56.60;;;;;;6239059;28;20045;-78
2021/09/15 02:14:10;;;;;;;7.22;3.10;;;25.30;56.70;;;;;;6246079;28;20112;-78
2021/09/15 02:17:19;;;;;;;6.72;2.80;;;25.30;56.90;;;;;;6266303;28;20104;-78
2021/09/15 02:20:25;;;;;;;8.82;3.65;;;25.30;57.10;;;;;;6243868;28;20100;-78
2021/09/15 02:23:35;;;;;;;11.68;3.22;;;25.20;57.30;;;;;;6243899;28;20079;-78
2021/09/15 02:26:48;;;;;;;8.73;3.72;;;25.20;57.90;;;;;;6232338;28;20029;-78
2021/09/15 02:29:49;;;;;;;7.63;3.00;;;25.20;58.30;;;;;;6247054;28;20053;-79
2021/09/15 02:33:06;;;;;;;13.23;3.90;;;25.10;58.60;;;;;;6237019;28;20037;-78
2021/09/15 02:36:32;;;;;;;9.93;3.95;;;25.10;59.10;;;;;;6271537;28;20345;-79
2021/09/15 02:40:03;;;;;;;6.93;3.33;;;25.10;59.40;;;;;;6194813;28;20026;-78
2021/09/15 02:43:21;;;;;;;7.80;3.75;;;25.10;59.50;;;;;;6181719;28;20447;-78
2021/09/15 02:46:38;;;;;;;5.07;3.58;;;25.10;59.70;;;;;;6179395;28;20069;-79
2021/09/15 02:49:56;;;;;;;7.75;3.30;;;25.00;60.10;;;;;;6178886;28;20077;-79
2021/09/15 02:53:25;;;;;;;15.18;3.58;;;25.00;60.30;;;;;;6173614;28;20066;-79
2021/09/15 02:56:45;;;;;;;4.90;3.38;;;25.00;60.10;;;;;;6194499;28;20035;-78
2021/09/15 02:59:59;;;;;;;8.77;3.40;;;25.10;60.20;;;;;;6152700;28;20034;-78
2021/09/15 03:03:15;;;;;;;7.50;2.83;;;25.10;59.80;;;;;;6156723;28;20034;-78
2021/09/15 03:06:36;;;;;;;6.70;3.75;;;25.10;59.40;;;;;;6194750;28;20042;-78
2021/09/15 03:09:44;;;;;;;;;;;25.10;59.20;;;;;;6193905;28;20034;-79
2021/09/15 03:12:46;;;;;;;8.00;2.78;;;25.10;59.20;;;;;;6163842;28;19910;-78
2021/09/15 03:15:48;;;;;;;7.53;3.45;;;25.10;58.80;;;;;;6169489;28;20046;-78
2021/09/15 03:18:49;;;;;;;10.85;3.75;;;25.10;58.80;;;;;;6254564;28;20029;-78
2021/09/15 03:21:51;;;;;;;6.25;3.65;;;25.10;58.80;;;;;;6264683;28;20041;-79
2021/09/15 03:24:52;;;;;;;6.40;3.28;;;25.10;58.90;;;;;;6230063;28;20045;-79
2021/09/15 03:27:53;;;;;;;6.95;3.00;;;25.10;58.90;;;;;;6238928;28;20053;-79
2021/09/15 03:30:54;;;;;;;4.75;3.15;;;25.10;59.00;;;;;;6247635;28;20044;-78
2021/09/15 03:33:56;;;;;;;11.10;3.30;;;25.10;59.00;;;;;;6243157;28;20052;-79
2021/09/15 03:36:57;;;;;;;9.20;2.80;;;25.00;59.00;;;;;;6228574;28;20046;-79
2021/09/15 03:39:58;;;;;;;6.82;2.97;;;25.00;59.00;;;;;;6237144;28;20038;-78
2021/09/15 03:42:59;;;;;;;4.97;2.72;;;25.00;58.90;;;;;;6263125;28;20349;-80
2021/09/15 03:46:00;;;;;;;5.60;3.33;;;25.00;58.80;;;;;;6235071;28;20503;-79
2021/09/15 03:49:01;;;;;;;5.85;3.08;;;24.90;58.90;;;;;;6269930;28;20041;-78
2021/09/15 03:52:02;;;;;;;8.00;2.90;;;24.90;59.10;;;;;;6272152;28;20033;-78
2021/09/15 03:55:04;;;;;;;5.88;3.28;;;24.80;59.20;;;;;;6270467;28;20044;-78
2021/09/15 03:58:05;;;;;;;5.95;3.42;;;24.80;59.30;;;;;;6258508;28;20121;-78
2021/09/15 04:01:07;;;;;;;7.70;3.53;;;24.80;59.40;;;;;;6224325;28;20037;-78
2021/09/15 04:04:07;;;;;;;6.22;2.95;;;24.80;59.30;;;;;;6229546;28;20029;-78
2021/09/15 04:07:09;;;;;;;7.05;3.30;;;24.80;59.40;;;;;;6222002;28;20034;-78
2021/09/15 04:10:11;;;;;;;7.15;3.40;;;24.70;59.40;;;;;;6266126;28;20029;-77
2021/09/15 04:13:12;;;;;;;6.05;2.85;;;24.70;59.60;;;;;;6254931;28;20044;-78
2021/09/15 04:16:13;;;;;;;6.57;3.05;;;24.70;59.60;;;;;;6244654;28;20029;-78
2021/09/15 04:19:14;;;;;;;6.25;2.97;;;24.70;59.60;;;;;;6243147;28;20087;-78
2021/09/15 04:22:20;;;;;;;5.68;2.60;;;24.70;59.70;;;;;;6255828;28;20452;-78
2021/09/15 04:32:01;;;;;;;9.30;3.63;;;24.60;60.50;;;;;;6251112;28;20036;-78
2021/09/15 04:35:02;;;;;;;15.80;4.75;;;24.60;60.70;;;;;;6226915;28;20025;-78
2021/09/15 04:38:03;;;;;;;6.35;4.18;;;24.50;60.80;;;;;;6242827;28;20369;-79
2021/09/15 04:41:06;;;;;;;7.47;3.15;;;24.50;60.90;;;;;;6241349;28;20049;-79
2021/09/15 04:44:09;;;;;;;7.05;3.83;;;24.50;60.70;;;;;;6214083;28;20114;-77
2021/09/15 04:47:10;;;;;;;5.78;3.65;;;24.50;60.80;;;;;;6239924;28;20033;-78
2021/09/15 04:50:12;;;;;;;11.00;4.35;;;24.50;60.90;;;;;;6219392;28;20057;-80
2021/09/15 04:53:13;;;;;;;5.47;3.15;;;24.40;60.90;;;;;;6253797;28;20061;-79
2021/09/15 04:56:14;;;;;;;9.55;3.78;;;24.40;61.00;;;;;;6238542;28;20399;-76
2021/09/15 04:59:16;;;;;;;8.15;3.10;;;24.30;61.10;;;;;;6254973;28;20358;-78
2021/09/15 05:02:19;;;;;;;5.75;3.50;;;24.30;61.30;;;;;;6253482;28;20032;-78
2021/09/15 05:05:22;;;;;;;9.10;3.05;;;24.20;61.30;;;;;;6252427;28;20316;-78
2021/09/15 05:08:23;;;;;;;9.75;3.55;;;24.20;61.30;;;;;;6193490;28;20060;-78
2021/09/15 05:11:24;;;;;;;8.77;3.60;;;24.30;61.30;;;;;;6216388;28;20029;-79
2021/09/15 05:14:25;;;;;;;9.50;3.33;;;24.20;61.20;;;;;;6202318;28;20700;-80
2021/09/15 05:17:26;;;;;;;5.78;3.65;;;24.20;61.20;;;;;;6233923;28;20025;-79
2021/09/15 05:20:28;;;;;;;4.72;3.00;;;24.20;61.20;;;;;;6235270;28;20092;-82
2021/09/15 05:23:28;;;;;;;8.43;4.90;;;24.20;61.40;;;;;;6247225;28;20334;-79
2021/09/15 05:26:36;;;;;;;9.95;3.38;;;24.20;61.50;;;;;;6228582;28;20339;-79
2021/09/15 05:29:36;;;;;;;6.13;3.53;;;24.20;61.70;;;;;;6239776;28;20065;-79
2021/09/15 05:32:39;;;;;;;5.78;3.38;;;24.00;62.00;;;;;;6257104;28;20113;-81
2021/09/15 05:35:42;;;;;;;5.78;3.63;;;24.00;62.60;;;;;;6252015;28;20116;-79
2021/09/15 05:38:43;;;;;;;7.57;3.35;;;24.00;62.90;;;;;;6247703;28;20121;-79
2021/09/15 05:41:48;;;;;;;11.55;4.05;;;23.90;62.80;;;;;;6239947;28;20029;-81
2021/09/15 05:44:49;;;;;;;11.40;4.50;;;23.90;62.80;;;;;;6270452;28;20028;-80
2021/09/15 05:47:50;;;;;;;5.88;3.28;;;23.90;62.90;;;;;;6253880;28;20196;-80
2021/09/15 05:50:53;;;;;;;8.88;3.90;;;23.90;62.90;;;;;;6268227;28;20128;-80
2021/09/15 05:53:55;;;;;;;9.05;4.07;;;23.90;62.50;;;;;;6244692;28;20033;-79
2021/09/15 05:56:57;;;;;;;8.05;3.47;;;24.00;62.30;;;;;;6272405;28;20033;-80
2021/09/15 05:59:58;;;;;;;8.20;3.72;;;24.00;62.30;;;;;;6266909;28;20080;-80
2021/09/15 06:02:59;;;;;;;9.93;3.92;;;24.00;62.20;;;;;;6238242;28;20354;-79
2021/09/15 06:06:19;;;;;;;7.80;4.35;;;24.00;62.30;;;;;;6252635;28;20037;-80
2021/09/15 06:09:21;;;;;;;9.93;3.63;;;24.00;62.40;;;;;;6230950;28;20033;-79
2021/09/15 06:12:23;;;;;;;14.15;4.15;;;24.00;62.50;;;;;;6238131;28;20025;-79
2021/09/15 06:15:24;;;;;;;8.32;3.40;;;24.00;62.50;;;;;;6248680;28;20037;-79
2021/09/15 06:18:26;;;;;;;7.32;3.63;;;24.10;62.60;;;;;;6272706;28;20032;-80
2021/09/15 06:21:56;;;;;;;9.38;4.00;;;24.10;62.50;;;;;;6237034;28;20037;-76
2021/09/15 06:25:16;;;;;;;7.53;3.95;;;24.10;62.40;;;;;;6247411;28;20404;-76
2021/09/15 06:28:35;;;;;;;10.02;4.28;;;25.30;63.10;;;;;;6164547;28;20041;-76
2021/09/15 06:31:36;;;;;;;16.38;4.57;;;24.20;62.40;;;;;;6268418;28;20036;-75
2021/09/15 06:34:37;;;;;;;8.20;4.28;;;24.10;62.40;;;;;;6247279;28;20059;-75
2021/09/15 06:37:39;;;;;;;16.92;4.13;;;24.10;62.60;;;;;;6247425;28;20091;-76
2021/09/15 06:40:41;;;;;;;11.55;4.53;;;24.10;62.70;;;;;;6247960;28;20029;-76
2021/09/15 06:43:44;;;;;;;7.82;3.90;;;24.10;62.80;;;;;;6257246;28;20017;-78
2021/09/15 06:46:45;;;;;;;7.90;3.92;;;24.10;62.90;;;;;;6266266;28;20040;-77
2021/09/15 06:49:46;;;;;;;8.43;3.72;;;24.00;63.00;;;;;;6255824;28;20033;-77
2021/09/15 06:52:47;;;;;;;12.13;4.00;;;24.10;63.00;;;;;;6266833;28;20041;-78
2021/09/15 06:55:48;;;;;;;8.48;3.95;;;24.20;63.00;;;;;;6230489;28;20025;-77
2021/09/15 06:58:50;;;;;;;7.85;3.78;;;24.20;62.60;;;;;;6252788;28;20033;-78
2021/09/15 07:01:51;;;;;;;7.03;3.88;;;24.30;62.30;;;;;;6211814;28;20072;-76
2021/09/15 07:04:52;;;;;;;8.25;3.60;;;24.40;62.20;;;;;;6259268;28;20058;-78
2021/09/15 07:07:55;;;;;;;7.85;3.53;;;24.50;62.00;;;;;;6245696;28;20049;-77
2021/09/15 07:10:55;;;;;;;10.20;2.60;;;24.50;61.60;;;;;;6269512;28;20032;-78
2021/09/15 07:14:03;;;;;;;7.72;3.13;;;24.60;61.20;;;;;;6253393;28;20460;-78
2021/09/15 07:17:03;;;;;;;14.63;4.68;;;24.70;60.90;;;;;;6239780;28;20036;-78
2021/09/15 07:20:05;;;;;;;9.65;3.33;;;24.70;60.70;;;;;;6248741;28;20336;-78
2021/09/15 07:23:06;;;;;;;28.35;4.60;;;24.80;60.60;;;;;;6247507;28;20353;-78
2021/09/15 07:26:07;;;;;;;12.65;3.90;;;24.90;60.30;;;;;;6270844;28;20029;-77
2021/09/15 07:29:08;;;;;;;40.28;7.10;;;25.10;60.00;;;;;;6233574;28;20393;-77
2021/09/15 07:32:09;;;;;;;5.55;3.10;;;25.20;59.70;;;;;;6233367;28;20351;-78
2021/09/15 07:35:12;;;;;;;26.42;4.88;;;25.30;59.30;;;;;;6221089;28;20029;-77
2021/09/15 07:38:13;;;;;;;17.05;4.30;;;25.30;59.20;;;;;;6223218;28;20060;-77
2021/09/15 07:41:14;;;;;;;12.93;3.00;;;25.30;59.20;;;;;;6220164;28;20022;-77
2021/09/15 07:44:15;;;;;;;8.45;3.40;;;25.30;59.30;;;;;;6239283;28;20396;-77
2021/09/15 07:47:16;;;;;;;3.92;2.88;;;25.30;59.30;;;;;;6234599;28;20041;-77
2021/09/15 07:50:17;;;;;;;7.53;3.40;;;25.30;59.20;;;;;;6224963;28;20033;-78
2021/09/15 07:53:19;;;;;;;8.82;3.38;;;25.30;59.20;;;;;;6219918;28;20044;-78
2021/09/15 07:56:20;;;;;;;8.15;3.35;;;25.30;59.30;;;;;;6202835;28;20101;-77
2021/09/15 07:59:21;;;;;;;27.15;12.07;;;25.20;59.50;;;;;;6225620;28;20033;-78
2021/09/15 08:02:22;;;;;;;8.73;3.78;;;25.20;59.90;;;;;;6232262;28;20044;-78
2021/09/15 08:05:23;;;;;;;8.75;4.30;;;25.20;60.00;;;;;;6221205;28;20037;-78
2021/09/15 08:08:25;;;;;;;12.32;4.68;;;25.20;60.20;;;;;;6231919;28;20049;-79
2021/09/15 08:11:25;;;;;;;9.93;4.35;;;25.20;60.40;;;;;;6222109;28;20049;-79
2021/09/15 08:14:26;;;;;;;12.07;4.30;;;25.20;60.40;;;;;;6221107;28;20026;-78
2021/09/15 08:17:27;;;;;;;11.30;4.95;;;25.10;60.40;;;;;;6204053;28;20087;-79
2021/09/15 08:20:29;;;;;;;10.40;3.20;;;25.10;60.50;;;;;;6244322;28;20017;-78
2021/09/15 08:23:32;;;;;;;7.25;3.85;;;25.10;60.60;;;;;;6243817;28;20025;-78
2021/09/15 08:26:34;;;;;;;9.18;4.15;;;25.10;60.70;;;;;;6251547;28;20036;-76
2021/09/15 08:29:36;;;;;;;16.92;3.20;;;25.00;60.90;;;;;;6268094;28;20052;-78
2021/09/15 08:32:37;;;;;;;9.20;3.47;;;24.90;61.20;;;;;;6270199;28;20126;-77
2021/09/15 08:35:38;;;;;;;13.45;4.03;;;24.90;61.30;;;;;;6244413;28;20029;-79
2021/09/15 08:38:39;;;;;;;9.68;3.25;;;24.90;61.40;;;;;;6267778;28;20087;-77
2021/09/15 08:41:40;;;;;;;12.23;3.78;;;24.90;61.60;;;;;;6269210;28;20507;-77
2021/09/15 08:44:41;;;;;;;21.52;4.03;;;24.70;61.80;;;;;;6276186;28;20446;-77
2021/09/15 08:47:44;;;;;;;9.77;4.18;;;24.70;62.20;;;;;;6268573;28;20068;-76
2021/09/15 08:50:49;;;;;;;12.55;4.28;;;24.60;62.70;;;;;;6259054;28;20040;-77
2021/09/15 08:53:51;;;;;;;12.43;3.70;;;24.40;63.30;;;;;;6249836;28;20347;-77
2021/09/15 08:56:54;;;;;;;21.95;4.85;;;24.30;63.60;;;;;;6251173;28;20036;-77
2021/09/15 08:59:55;;;;;;;12.73;4.00;;;24.30;63.80;;;;;;6245024;28;20123;-78
2021/09/15 09:02:56;;;;;;;17.05;5.60;;;24.20;64.10;;;;;;6243159;28;20502;-79
2021/09/15 09:06:08;;;;;;;12.90;5.43;;;24.20;64.40;;;;;;6225682;28;20025;-78
2021/09/15 09:09:09;;;;;;;12.30;5.05;;;24.10;64.70;;;;;;6237601;28;20073;-78
2021/09/15 09:12:12;;;;;;;16.60;5.97;;;24.20;64.90;;;;;;6209227;28;20124;-78
2021/09/15 09:15:22;;;;;;;22.52;8.48;;;24.20;65.20;;;;;;6217677;28;20495;-78
2021/09/15 09:18:26;;;;;;;18.42;6.88;;;24.30;65.60;;;;;;6230811;28;20041;-79
2021/09/15 09:21:28;;;;;;;29.13;10.65;;;24.30;65.70;;;;;;6245668;28;20064;-79
2021/09/15 09:24:30;;;;;;;36.17;12.00;;;24.30;65.80;;;;;;6238522;28;20099;-79
2021/09/15 09:27:33;;;;;;;21.42;8.52;;;24.40;65.70;;;;;;6248886;28;20048;-79
2021/09/15 09:30:38;;;;;;;15.18;7.13;;;24.40;65.60;;;;;;6248096;28;20468;-78
2021/09/15 09:33:39;;;;;;;12.07;6.07;;;24.40;65.60;;;;;;6235964;28;20029;-79
2021/09/15 09:36:40;;;;;;;28.40;12.57;;;24.50;65.70;;;;;;6224540;28;20304;-79
2021/09/15 09:39:48;;;;;;;18.35;8.25;;;24.50;65.60;;;;;;6221109;28;20132;-78
2021/09/15 09:42:49;;;;;;;16.75;5.85;;;24.60;65.50;;;;;;6225231;28;20121;-79
2021/09/15 09:45:51;;;;;;;13.77;5.53;;;24.70;65.40;;;;;;6245761;28;20029;-77
2021/09/15 09:48:55;;;;;;;16.67;5.68;;;24.80;65.50;;;;;;6257626;28;20071;-80
2021/09/15 09:51:58;;;;;;;14.40;5.07;;;25.00;65.40;;;;;;6249693;28;20125;-78
2021/09/15 09:55:04;;;;;;;13.48;4.50;;;25.20;65.10;;;;;;6223540;28;20034;-79
2021/09/15 09:58:07;;;;;;;11.27;5.10;;;25.30;64.60;;;;;;6231270;28;20371;-79
2021/09/15 10:01:09;;;;;;;10.25;5.00;;;25.40;64.10;;;;;;6218739;28;20062;-78
2021/09/15 10:04:11;;;;;;;8.80;4.50;;;25.50;64.00;;;;;;6249318;28;20033;-78
2021/09/15 10:07:14;;;;;;;14.63;4.72;;;25.50;63.90;;;;;;6251791;28;20024;-77
2021/09/15 10:10:18;;;;;;;26.15;12.68;;;25.40;64.40;;;;;;6264865;28;20036;-79
2021/09/15 10:13:21;;;;;;;12.13;4.75;;;25.30;63.60;;;;;;6256055;28;20045;-80
2021/09/15 10:16:23;;;;;;;15.57;5.20;;;25.30;63.60;;;;;;6234404;28;20088;-79
2021/09/15 10:19:36;;;;;;;15.75;5.40;;;25.30;63.50;;;;;;6212866;28;20088;-80
2021/09/15 10:22:41;;;;;;;14.63;5.35;;;25.20;63.10;;;;;;6245693;28;20034;-81
2021/09/15 10:25:43;;;;;;;16.30;5.32;;;25.30;63.10;;;;;;6269354;28;20052;-80
2021/09/15 10:29:23;;;;;;;16.00;5.93;;;25.40;62.80;;;;;;6251436;28;20041;-80
2021/09/15 10:32:32;;;;;;;16.42;5.57;;;25.60;62.50;;;;;;6252326;28;20024;-80
2021/09/15 10:35:53;;;;;;;11.65;6.53;;;25.80;61.80;;;;;;6267769;28;20025;-79
2021/09/15 10:38:59;;;;;;;10.15;5.05;;;26.30;61.40;;;;;;6268722;28;20056;-80
2021/09/15 10:42:04;;;;;;;16.48;5.63;;;26.70;59.90;;;;;;6232608;28;20026;-80
2021/09/15 10:45:17;;;;;;;11.20;5.20;;;27.10;59.20;;;;;;6255143;28;20083;-81
2021/09/15 10:48:18;;;;;;;13.55;4.13;;;27.50;58.40;;;;;;6239139;28;20021;-81
2021/09/15 10:51:19;;;;;;;18.17;6.28;;;27.80;57.80;;;;;;6233610;28;20044;-80
2021/09/15 10:54:43;;;;;;;11.68;5.20;;;28.20;56.80;;;;;;6244399;28;20037;-80
2021/09/15 10:58:16;;;;;;;39.40;14.63;;;28.40;55.80;;;;;;6229828;28;20025;-82
2021/09/15 11:01:37;;;;;;;20.73;4.97;;;29.00;54.50;;;;;;6250149;28;20029;-81
2021/09/15 11:04:39;;;;;;;9.18;3.80;;;29.40;53.90;;;;;;6246995;28;20041;-81
2021/09/15 11:07:49;;;;;;;11.65;3.92;;;29.80;52.90;;;;;;6245407;28;20056;-80
2021/09/15 11:10:50;;;;;;;7.38;3.95;;;30.00;52.20;;;;;;6244486;28;20199;-81
2021/09/15 11:14:00;;;;;;;14.45;5.45;;;30.20;51.40;;;;;;6250465;28;20099;-81
2021/09/15 11:17:04;;;;;;;10.77;4.25;;;30.30;51.00;;;;;;6248021;28;20059;-83
2021/09/15 11:20:05;;;;;;;14.43;4.78;;;30.40;50.80;;;;;;6258494;28;20090;-82
2021/09/15 11:23:08;;;;;;;14.80;3.78;;;30.40;50.90;;;;;;6234296;28;20055;-81
2021/09/15 11:26:09;;;;;;;9.27;3.55;;;30.40;50.40;;;;;;6219586;28;20049;-81
2021/09/15 11:29:11;;;;;;;7.47;3.03;;;30.50;50.00;;;;;;6208377;28;20074;-82
2021/09/15 11:32:15;;;;;;;11.80;3.30;;;30.60;49.80;;;;;;6242238;28;20056;-82
2021/09/15 11:35:17;;;;;;;9.82;3.70;;;30.70;49.40;;;;;;6249032;28;20039;-82
2021/09/15 11:38:25;;;;;;;8.70;3.63;;;30.70;48.20;;;;;;6210404;28;20048;-81
2021/09/15 11:41:26;;;;;;;13.10;4.90;;;30.60;48.40;;;;;;6245942;28;20083;-80
2021/09/15 11:44:27;;;;;;;10.13;3.53;;;30.70;48.10;;;;;;6244764;28;20037;-81
2021/09/15 11:47:28;;;;;;;9.18;3.25;;;30.60;48.10;;;;;;6269723;28;20096;-81
2021/09/15 11:50:33;;;;;;;10.90;4.30;;;30.70;47.40;;;;;;6251075;28;20086;-80
2021/09/15 11:53:34;;;;;;;7.82;3.58;;;30.80;46.40;;;;;;6268598;28;20444;-81
2021/09/15 11:59:36;;;;;;;12.18;3.95;;;30.30;47.00;;;;;;6267337;28;20902;-81
2021/09/15 12:02:40;;;;;;;30.48;5.18;;;30.20;47.60;;;;;;6238644;28;20037;-81
2021/09/15 12:06:27;;;;;;;8.77;3.45;;;30.50;47.80;;;;;;6244606;28;20323;-81
2021/09/15 12:09:30;;;;;;;8.05;3.33;;;31.10;46.80;;;;;;6243778;28;20098;-81
2021/09/15 12:12:33;;;;;;;14.57;3.92;;;31.80;45.60;;;;;;6235380;28;20112;-87
2021/09/15 12:15:47;;;;;;;11.98;5.90;;;32.60;44.20;;;;;;6244792;28;20044;-81
2021/09/15 12:18:50;;;;;;;14.27;5.03;;;33.40;42.60;;;;;;6267172;28;20430;-81
2021/09/15 12:21:52;;;;;;;10.48;3.92;;;34.00;41.50;;;;;;6270759;28;20362;-83
2021/09/15 12:25:08;;;;;;;14.02;4.20;;;34.60;40.30;;;;;;6244267;28;20116;-84
2021/09/15 12:28:10;;;;;;;14.15;5.22;;;35.30;39.40;;;;;;6232685;28;20110;-82
2021/09/15 12:31:21;;;;;;;8.27;2.85;;;35.40;39.10;;;;;;6244449;28;20344;-83
2021/09/15 12:34:31;;;;;;;10.05;3.20;;;35.30;39.20;;;;;;6249570;28;20057;-82
2021/09/15 12:37:38;;;;;;;10.07;4.53;;;35.40;38.80;;;;;;6257714;28;20039;-83
2021/09/15 12:40:39;;;;;;;10.98;3.15;;;35.40;38.40;;;;;;6248055;28;20039;-84
2021/09/15 12:43:39;;;;;;;9.25;2.85;;;35.50;37.90;;;;;;6257981;28;20025;-83
2021/09/15 12:46:49;;;;;;;12.77;3.58;;;35.50;37.50;;;;;;6228370;28;20100;-84
2021/09/15 12:49:50;;;;;;;6.10;3.15;;;35.30;37.30;;;;;;6244043;28;20041;-83
2021/09/15 12:53:08;;;;;;;9.00;2.97;;;35.00;37.80;;;;;;6241775;28;20095;-83
2021/09/15 12:56:09;;;;;;;14.75;3.08;;;34.50;39.00;;;;;;6246688;28;20044;-82
2021/09/15 12:59:29;;;;;;;9.82;2.85;;;34.00;39.20;;;;;;6262838;28;20026;-82
2021/09/15 13:02:30;;;;;;;5.93;2.92;;;33.70;39.60;;;;;;6245539;28;20445;-82
2021/09/15 13:05:36;;;;;;;8.90;3.53;;;33.70;39.10;;;;;;6227733;28;20048;-81
2021/09/15 13:08:49;;;;;;;14.20;3.10;;;34.30;38.10;;;;;;6208386;28;20133;-82
2021/09/15 13:11:50;;;;;;;13.05;3.70;;;35.00;36.80;;;;;;6246809;28;20501;-81
2021/09/15 13:14:56;;;;;;;14.07;3.15;;;35.70;35.20;;;;;;6243056;28;20038;-82
2021/09/15 13:17:57;;;;;;;7.03;2.75;;;36.10;34.40;;;;;;6245231;28;20036;-82
2021/09/15 13:20:58;;;;;;;4.57;2.95;;;36.40;34.00;;;;;;6273807;28;20037;-80
2021/09/15 13:23:59;;;;;;;8.98;2.65;;;36.40;34.70;;;;;;6261486;28;20056;-83
2021/09/15 13:27:00;;;;;;;13.40;2.63;;;36.20;34.20;;;;;;6255920;28;20026;-83
2021/09/15 13:30:03;;;;;;;20.02;2.97;;;36.00;34.30;;;;;;6247318;28;20342;-81
2021/09/15 13:33:06;;;;;;;12.05;2.67;;;35.60;34.50;;;;;;6251515;28;20078;-83
2021/09/15 13:36:07;;;;;;;10.85;2.78;;;35.10;35.30;;;;;;6239614;28;20076;-81
2021/09/15 13:39:09;;;;;;;11.20;2.90;;;34.50;35.90;;;;;;6250555;28;20048;-82
2021/09/15 13:42:10;;;;;;;11.18;2.75;;;33.80;36.80;;;;;;6266399;28;20045;-82
2021/09/15 13:45:15;;;;;;;15.90;2.92;;;33.20;37.60;;;;;;6262775;28;20061;-82
2021/09/15 13:48:16;;;;;;;15.95;4.20;;;32.70;38.30;;;;;;6248787;28;20025;-80
2021/09/15 13:51:17;;;;;;;12.10;2.75;;;32.20;38.90;;;;;;6255573;28;20061;-83
2021/09/15 13:54:24;;;;;;;7.97;2.42;;;31.90;39.60;;;;;;6214570;28;20033;-83
2021/09/15 13:57:26;;;;;;;9.25;3.05;;;31.50;40.30;;;;;;6239783;28;20026;-81
2021/09/15 14:00:27;;;;;;;13.07;3.58;;;31.20;41.00;;;;;;6254350;28;20040;-80
2021/09/15 14:03:28;;;;;;;12.48;2.67;;;31.00;41.60;;;;;;6244095;28;20064;-81
2021/09/15 14:06:29;;;;;;;14.75;2.58;;;30.70;42.50;;;;;;6240846;28;20029;-81
2021/09/15 14:09:30;;;;;;;14.00;2.83;;;30.60;41.90;;;;;;6237813;28;20124;-80
2021/09/15 14:12:32;;;;;;;12.00;2.63;;;30.60;41.50;;;;;;6264904;28;20081;-80
2021/09/15 14:15:33;;;;;;;11.30;2.53;;;30.50;42.00;;;;;;6250756;28;20307;-81
2021/09/15 14:18:34;;;;;;;7.95;2.20;;;30.60;42.00;;;;;;6264099;28;20033;-81
2021/09/15 14:21:35;;;;;;;16.25;2.78;;;30.50;41.90;;;;;;6257610;28;20028;-82
2021/09/15 14:24:38;;;;;;;16.75;3.10;;;30.40;42.00;;;;;;6269483;28;20454;-81
2021/09/15 14:27:40;;;;;;;10.70;3.15;;;30.40;42.20;;;;;;6251203;28;20097;-81
2021/09/15 14:30:42;;;;;;;11.38;2.92;;;30.30;42.30;;;;;;6258926;28;20052;-83
2021/09/15 14:33:42;;;;;;;7.70;2.75;;;30.30;42.40;;;;;;6222420;28;20041;-81
2021/09/15 14:36:43;;;;;;;13.98;3.10;;;30.40;42.60;;;;;;6229365;28;20099;-81
2021/09/15 14:39:44;;;;;;;8.65;3.08;;;30.50;42.60;;;;;;6219642;28;20048;-81
2021/09/15 14:42:45;;;;;;;14.93;3.72;;;30.60;42.40;;;;;;6241033;28;20072;-82
2021/09/15 14:45:46;;;;;;;14.18;2.97;;;30.60;42.30;;;;;;6241969;28;20373;-81
2021/09/15 14:48:47;;;;;;;6.45;2.10;;;30.60;41.70;;;;;;6228637;28;20136;-81
2021/09/15 14:51:48;;;;;;;16.13;2.65;;;30.60;42.20;;;;;;6247285;28;20073;-81
2021/09/15 14:54:49;;;;;;;13.40;2.85;;;30.60;42.30;;;;;;6245617;28;20033;-81
2021/09/15 14:57:50;;;;;;;8.98;3.55;;;30.40;42.40;;;;;;6241714;28;20033;-82
2021/09/15 15:00:51;;;;;;;8.25;2.83;;;30.40;42.70;;;;;;6245351;28;20076;-81
2021/09/15 15:03:52;;;;;;;15.05;2.80;;;30.20;43.00;;;;;;6237837;28;20029;-83
2021/09/15 15:06:54;;;;;;;8.35;2.97;;;30.00;43.20;;;;;;6264471;28;20098;-82
2021/09/15 15:09:55;;;;;;;11.90;2.70;;;30.00;43.50;;;;;;6260305;28;20085;-81
2021/09/15 15:12:56;;;;;;;13.57;3.58;;;29.80;43.60;;;;;;6263981;28;20086;-81
2021/09/15 15:15:57;;;;;;;7.00;2.30;;;29.70;43.80;;;;;;6249326;28;20034;-82
2021/09/15 15:18:58;;;;;;;12.52;3.55;;;29.60;43.90;;;;;;6254338;28;20029;-81
2021/09/15 15:21:59;;;;;;;14.18;3.13;;;29.40;44.30;;;;;;6247125;28;20033;-82
2021/09/15 15:25:06;;;;;;;10.40;2.63;;;29.30;44.70;;;;;;6246295;28;20101;-81
2021/09/15 15:28:07;;;;;;;12.90;3.10;;;29.30;44.70;;;;;;6241724;28;20103;-82
2021/09/15 15:31:08;;;;;;;10.80;3.17;;;29.50;44.60;;;;;;6249816;28;20076;-81
2021/09/15 15:34:09;;;;;;;10.35;2.90;;;29.60;44.60;;;;;;6247486;28;20423;-81
2021/09/15 15:37:10;;;;;;;19.38;4.82;;;29.70;44.70;;;;;;6275947;28;20036;-81
2021/09/15 15:40:13;;;;;;;17.73;3.70;;;29.70;44.60;;;;;;6246228;28;20049;-81
2021/09/15 15:43:15;;;;;;;13.93;3.13;;;29.60;44.70;;;;;;6248094;28;20746;-82
2021/09/15 15:46:17;;;;;;;21.98;4.35;;;29.60;44.80;;;;;;6271416;28;20141;-83
2021/09/15 15:49:18;;;;;;;10.63;3.08;;;29.60;44.90;;;;;;6254984;28;20044;-83
2021/09/15 15:52:19;;;;;;;15.02;3.15;;;29.50;45.00;;;;;;6241136;28;20065;-81
2021/09/15 15:55:22;;;;;;;13.23;3.15;;;29.50;45.00;;;;;;6222861;28;20024;-81
2021/09/15 15:58:25;;;;;;;19.75;3.88;;;29.40;45.10;;;;;;6259156;28;20044;-82
2021/09/15 16:01:25;;;;;;;10.57;2.78;;;29.30;45.30;;;;;;6236685;28;20030;-83
2021/09/15 16:04:26;;;;;;;11.88;2.90;;;29.20;45.50;;;;;;6238212;28;20346;-82